Time;durP1;ratioP1;P1;durP2;ratioP2;P2;SDS_P1;SDS_P2;PMS_P1;PMS_P2;Temp;Humidity;BMP_temperature;BMP_pressure;BME280_temperature;BME280_humidity;BME280_pressure;Samples;Min_cycle;Max_cycle;Signal;HPM_P1;HPM_P2
2022/12/16 00:00:21;;;;;;;1.98;1.60;;;;;;;11.64;23.98;99773.19;5039112;28;20020;-92
2022/12/16 00:02:46;;;;;;;1.73;1.55;;;;;;;11.75;24.27;99782.47;5045297;28;20032;-92
2022/12/16 00:05:12;;;;;;;2.25;1.70;;;;;;;11.54;24.02;99754.06;5063170;28;20158;-92
2022/12/16 00:07:38;;;;;;;1.88;1.63;;;;;;;11.56;24.00;99754.72;5021041;28;20077;-91
2022/12/16 00:10:04;;;;;;;1.65;1.40;;;;;;;11.68;24.21;99787.00;5053223;28;20040;-92
2022/12/16 00:12:29;;;;;;;2.15;1.80;;;;;;;11.63;23.94;99776.91;5040968;28;20036;-92
2022/12/16 00:14:55;;;;;;;2.00;1.50;;;;;;;11.68;23.83;99792.38;5053211;28;20458;-92
2022/12/16 00:17:24;;;;;;;1.92;1.67;;;;;;;11.59;24.00;99779.19;5023801;28;20029;-92
2022/12/16 00:19:49;;;;;;;2.13;1.75;;;;;;;11.65;24.00;99797.06;5019381;28;20473;-92
2022/12/16 00:22:17;;;;;;;2.03;1.48;;;;;;;11.59;24.03;99781.03;5038457;28;20040;-92
2022/12/16 00:24:45;;;;;;;2.17;1.58;;;;;;;11.65;24.09;99801.63;5020174;28;20037;-90
2022/12/16 00:27:11;;;;;;;2.38;1.58;;;;;;;11.42;23.89;99776.13;5036158;28;20024;-92
2022/12/16 00:29:36;;;;;;;2.10;1.63;;;;;;;11.48;23.88;99787.03;5010668;28;20039;-92
2022/12/16 00:32:13;;;;;;;2.22;1.70;;;;;;;11.55;23.97;99799.34;5017166;28;20042;-92
2022/12/16 00:34:39;;;;;;;2.30;1.77;;;;;;;11.46;23.85;99790.72;5023549;28;20167;-92
2022/12/16 00:37:04;;;;;;;1.95;1.40;;;;;;;11.56;24.04;99810.91;5040556;28;20029;-92
2022/12/16 00:39:32;;;;;;;2.00;1.70;;;;;;;11.56;23.97;99802.88;5025238;28;20177;-91
2022/12/16 00:42:00;;;;;;;2.13;1.55;;;;;;;11.49;23.79;99797.53;5045118;28;20116;-92
2022/12/16 00:44:26;;;;;;;2.05;1.70;;;;;;;11.60;23.90;99822.84;5038080;28;20159;-91
2022/12/16 00:46:52;;;;;;;2.13;1.70;;;;;;;11.52;23.72;99805.16;5023342;28;20556;-91
2022/12/16 00:49:17;;;;;;;1.98;1.77;;;;;;;11.48;23.99;99806.59;5027096;28;20472;-91
2022/12/16 00:51:44;;;;;;;2.05;1.70;;;;;;;11.49;24.02;99802.88;5049177;28;20054;-92
2022/12/16 00:54:09;;;;;;;2.50;1.73;;;;;;;11.52;23.77;99801.63;5035389;28;20393;-92
2022/12/16 00:56:35;;;;;;;2.53;1.75;;;;;;;11.52;23.72;99818.53;5054732;28;20103;-92
2022/12/16 00:59:01;;;;;;;2.10;1.90;;;;;;;11.48;24.03;99817.28;5054222;28;20024;-92
2022/12/16 01:01:27;;;;;;;1.73;1.35;;;;;;;11.48;23.72;99814.59;5062086;28;20024;-92
2022/12/16 01:03:56;;;;;;;1.85;1.60;;;;;;;11.49;23.88;99818.09;5062177;28;20036;-92
2022/12/16 01:06:21;;;;;;;1.40;1.30;;;;;;;11.54;24.05;99820.97;5013159;28;20052;-92
2022/12/16 01:08:47;;;;;;;2.85;1.80;;;;;;;11.50;23.78;99819.75;5040827;28;20549;-92
2022/12/16 01:11:14;;;;;;;1.80;1.60;;;;;;;11.49;23.82;99818.09;5049965;28;20051;-92
2022/12/16 01:13:40;;;;;;;2.35;1.60;;;;;;;11.42;23.73;99810.91;5061761;28;20024;-92
2022/12/16 01:16:06;;;;;;;1.80;1.50;;;;;;;11.49;23.70;99823.44;5047741;28;20035;-92
2022/12/16 01:18:31;;;;;;;2.72;1.70;;;;;;;11.35;23.76;99802.06;5051716;28;20025;-92
2022/12/16 01:21:07;;;;;;;1.63;1.52;;;;;;;11.39;23.74;99816.69;5021200;28;20032;-91
2022/12/16 01:23:32;;;;;;;1.73;1.58;;;;;;;11.32;23.95;99807.84;5029590;28;20114;-92
2022/12/16 01:25:59;;;;;;;2.47;2.00;;;;;;;11.38;23.82;99806.19;5018182;28;20029;-92
2022/12/16 01:28:25;;;;;;;1.80;1.60;;;;;;;11.38;23.61;99823.06;5043272;28;20086;-93
2022/12/16 01:31:07;;;;;;;1.60;1.50;;;;;;;11.41;23.68;99822.63;5014084;28;20074;-92
2022/12/16 01:33:33;;;;;;;1.77;1.63;;;;;;;11.40;23.69;99821.00;5012527;28;20036;-92
2022/12/16 01:36:03;;;;;;;2.50;1.90;;;;;;;11.33;23.61;99814.84;5013776;28;20033;-92
2022/12/16 01:38:29;;;;;;;2.00;1.60;;;;;;;11.32;23.62;99812.38;5035792;28;20039;-92
2022/12/16 01:40:54;;;;;;;1.92;1.60;;;;;;;11.35;23.72;99823.47;5028447;28;20115;-92
2022/12/16 01:43:31;;;;;;;1.60;1.48;;;;;;;11.29;23.78;99824.28;5036681;28;20024;-92
2022/12/16 01:46:11;;;;;;;2.30;1.65;;;;;;;11.39;23.58;99839.94;5041731;28;20221;-92
2022/12/16 01:49:01;;;;;;;2.95;1.83;;;;;;;11.34;23.59;99829.84;5031114;28;20029;-92
2022/12/16 01:51:36;;;;;;;2.50;1.58;;;;;;;11.30;23.77;99825.94;5033969;28;20025;-92
2022/12/16 01:54:26;;;;;;;2.03;1.70;;;;;;;11.28;23.75;99828.81;5016587;28;20047;-92
2022/12/16 01:57:02;;;;;;;2.13;1.70;;;;;;;11.37;23.87;99847.34;5019285;28;20259;-92
2022/12/16 01:59:28;;;;;;;1.92;1.58;;;;;;;11.27;23.60;99826.34;5018187;28;20028;-92
2022/12/16 02:01:58;;;;;;;2.75;1.80;;;;;;;11.24;23.79;99824.91;5021540;28;20118;-92
2022/12/16 02:04:23;;;;;;;1.70;1.60;;;;;;;11.27;23.68;99827.16;5036442;28;20522;-91
2022/12/16 02:06:49;;;;;;;2.13;1.60;;;;;;;11.30;23.50;99835.81;5040833;28;20103;-91
2022/12/16 02:09:15;;;;;;;2.00;1.80;;;;;;;11.16;23.68;99810.91;5034372;28;20027;-92
2022/12/16 02:12:03;;;;;;;2.03;1.83;;;;;;;11.32;23.45;99850.63;5013011;28;20426;-92
2022/12/16 02:14:57;;;;;;;2.72;2.03;;;;;;;11.33;23.72;99841.59;5026685;28;20044;-92
2022/12/16 02:18:03;;;;;;;1.92;1.65;;;;;;;11.22;23.44;99834.16;5054776;28;20033;-92
2022/12/16 02:20:38;;;;;;;2.40;1.80;;;;;;;11.29;23.61;99851.03;4992181;28;20391;-92
2022/12/16 02:23:10;;;;;;;2.08;1.80;;;;;;;11.25;23.54;99845.28;4984526;28;20041;-93
2022/12/16 02:26:16;;;;;;;1.77;1.63;;;;;;;11.29;23.40;99853.72;5026635;28;20524;-92
2022/12/16 02:29:12;;;;;;;2.30;1.52;;;;;;;11.27;23.62;99864.63;5063559;28;20028;-92
2022/12/16 02:32:16;;;;;;;2.05;1.60;;;;;;;11.26;23.60;99854.13;5047577;28;20041;-92
2022/12/16 02:35:04;;;;;;;2.90;1.85;;;;;;;11.27;23.55;99858.47;5020631;28;20026;-92
2022/12/16 02:37:40;;;;;;;2.88;1.90;;;;;;;11.19;23.68;99856.81;5003115;28;20045;-92
2022/12/16 02:40:27;;;;;;;2.35;1.90;;;;;;;11.26;23.58;99872.84;5028466;28;20040;-92
2022/12/16 02:42:56;;;;;;;2.03;1.60;;;;;;;11.15;23.71;99854.75;5038688;28;20032;-92
2022/12/16 02:45:26;;;;;;;3.10;1.73;;;;;;;11.21;23.61;99859.25;5064217;28;20031;-92
2022/12/16 02:47:52;;;;;;;2.00;1.80;;;;;;;11.07;23.60;99837.03;5021621;28;20544;-93
2022/12/16 02:50:24;;;;;;;3.20;1.80;;;;;;;11.21;23.43;99859.25;5037967;28;20032;-92
2022/12/16 02:52:50;;;;;;;1.92;1.65;;;;;;;11.18;23.68;99854.34;5023609;28;20758;-91
2022/12/16 02:55:16;;;;;;;2.38;1.63;;;;;;;11.19;23.65;99861.31;5022489;28;20071;-92
2022/12/16 02:58:04;;;;;;;1.90;1.63;;;;;;;11.21;23.53;99861.94;5029086;28;20208;-91
2022/12/16 03:00:40;;;;;;;3.70;1.90;;;;;;;11.15;23.44;99857.41;5055857;28;20047;-92
2022/12/16 03:03:19;;;;;;;2.67;1.60;;;;;;;11.20;23.61;99868.34;5024297;28;20037;-92
2022/12/16 03:05:48;;;;;;;2.08;1.80;;;;;;;11.13;23.46;99862.16;5036066;28;20043;-92
2022/12/16 03:08:19;;;;;;;2.70;1.70;;;;;;;11.07;23.29;99853.94;5024484;28;20516;-92
2022/12/16 03:10:49;;;;;;;2.55;1.60;;;;;;;11.13;23.56;99867.50;5019245;28;20033;-92
2022/12/16 03:13:16;;;;;;;2.17;1.75;;;;;;;11.10;23.39;99868.72;5039322;28;20020;-92
2022/12/16 03:15:42;;;;;;;2.00;1.80;;;;;;;11.08;23.53;99862.75;5015350;28;20692;-91
2022/12/16 03:18:08;;;;;;;2.63;2.22;;;;;;;10.93;23.51;99857.59;5049609;28;20032;-92
2022/12/16 03:20:46;;;;;;;2.10;1.60;;;;;;;11.04;23.27;99878.38;5036222;28;20024;-92
2022/12/16 03:23:15;;;;;;;2.60;1.75;;;;;;;11.15;23.57;99894.88;5050621;28;20032;-92
2022/12/16 03:25:42;;;;;;;2.13;1.88;;;;;;;11.13;23.52;99899.59;5024192;28;20173;-94
2022/12/16 03:28:37;;;;;;;2.83;1.83;;;;;;;11.01;23.50;99886.81;5039088;28;20021;-93
2022/12/16 03:31:09;;;;;;;3.17;2.17;;;;;;;11.10;23.56;99900.81;5048824;28;20025;-93
2022/12/16 03:33:38;;;;;;;2.15;1.63;;;;;;;11.09;23.38;99916.03;5041697;28;20055;-92
2022/12/16 03:36:08;;;;;;;1.90;1.60;;;;;;;11.03;23.63;99906.16;5050317;28;20520;-92
2022/12/16 03:38:34;;;;;;;2.65;2.05;;;;;;;11.02;23.53;99907.19;5020931;28;20025;-93
2022/12/16 03:41:02;;;;;;;2.47;1.70;;;;;;;10.95;23.23;99892.13;5027172;28;20052;-93
2022/12/16 03:43:28;;;;;;;2.38;1.55;;;;;;;10.76;23.34;99873.16;5022816;28;20053;-92
2022/12/16 03:45:55;;;;;;;2.25;1.70;;;;;;;11.00;23.42;99900.38;5025522;28;20132;-92
2022/12/16 03:48:24;;;;;;;2.15;1.75;;;;;;;10.99;23.36;99901.44;5041514;28;20431;-92
2022/12/16 03:50:50;;;;;;;3.65;1.70;;;;;;;10.80;23.43;99879.78;5038746;28;20024;-92
2022/12/16 03:53:15;;;;;;;2.33;1.70;;;;;;;10.98;23.34;99903.25;5032316;28;20104;-93
2022/12/16 03:55:41;;;;;;;1.98;1.48;;;;;;;10.97;23.39;99906.97;5040563;28;20036;-92
2022/12/16 03:58:09;;;;;;;2.05;1.70;;;;;;;10.94;23.31;99895.84;5023770;28;20485;-92
2022/12/16 04:00:35;;;;;;;4.28;1.75;;;;;;;11.04;23.15;99910.47;5022744;28;20029;-92
2022/12/16 04:03:00;;;;;;;2.85;2.03;;;;;;;10.86;23.46;99896.84;5034231;28;20553;-93
2022/12/16 04:05:26;;;;;;;2.05;1.77;;;;;;;11.03;23.29;99916.03;5014922;28;20036;-93
2022/12/16 04:07:52;;;;;;;3.25;2.13;;;;;;;11.03;23.31;99916.03;5020241;28;20068;-91
2022/12/16 04:24:17;;;;;;;3.45;2.00;;;;;;;10.87;23.17;99903.84;5016352;28;20091;-93
2022/12/16 04:29:27;;;;;;;3.30;1.95;;;;;;;10.94;23.06;99955.50;5056887;28;20621;-92
2022/12/16 04:31:53;;;;;;;2.08;1.80;;;;;;;10.81;23.35;99936.72;5037783;28;20052;-92
2022/12/16 04:34:25;;;;;;;3.90;1.83;;;;;;;10.91;23.13;99955.88;5037620;28;20068;-92
